createdAt,value
2023-04-15T00:01:12.276Z,96405.06
2023-04-15T00:03:39.916Z,96393.28
2023-04-15T00:06:07.012Z,96398.66
2023-04-15T00:08:33.722Z,96407.59
2023-04-15T00:11:03.209Z,96394.19
2023-04-15T00:13:30.191Z,96400.69
2023-04-15T00:15:56.901Z,96413.59
2023-04-15T00:18:24.950Z,96405.28
2023-04-15T00:20:52.603Z,96413.69
2023-04-15T00:23:19.565Z,96414.25
2023-04-15T00:25:47.004Z,96426.34
2023-04-15T00:28:13.940Z,96431.47
2023-04-15T00:30:40.591Z,96426.63
2023-04-15T00:33:08.126Z,96427.19
2023-04-15T00:35:36.705Z,96433.66
2023-04-15T00:38:04.789Z,96435.59
2023-04-15T00:40:31.661Z,96431.03
2023-04-15T00:42:58.426Z,96425.16
2023-04-15T00:45:26.136Z,96431.34
2023-04-15T00:48:01.725Z,96417.41
2023-04-15T00:50:33.501Z,96424.13
2023-04-15T00:53:00.147Z,96418.50
2023-04-15T00:55:27.121Z,96419.34
2023-04-15T00:57:54.314Z,96416.91
2023-04-15T01:00:21.218Z,96411.28
2023-04-15T01:02:47.965Z,96415.06
2023-04-15T01:05:17.337Z,96414.78
2023-04-15T01:07:44.038Z,96412.66
2023-04-15T01:10:10.950Z,96421.00
2023-04-15T01:12:38.204Z,96409.72
2023-04-15T01:15:05.836Z,96412.44
2023-04-15T01:17:33.074Z,96413.25
2023-04-15T01:19:59.730Z,96400.63
2023-04-15T01:22:28.029Z,96406.28
2023-04-15T01:25:02.465Z,96413.25
2023-04-15T01:27:29.413Z,96410.03
2023-04-15T01:29:56.076Z,96406.28
2023-04-15T01:32:22.816Z,96408.97
2023-04-15T01:34:49.701Z,96404.16
2023-04-15T01:37:16.368Z,96407.13
2023-04-15T01:39:43.233Z,96405.78
2023-04-15T01:42:10.068Z,96412.50
2023-04-15T01:44:36.662Z,96414.09
2023-04-15T01:47:03.367Z,96417.06
2023-04-15T01:49:30.019Z,96416.81
2023-04-15T01:51:56.649Z,96415.22
2023-04-15T01:54:23.417Z,96415.47
2023-04-15T01:56:50.114Z,96407.97
2023-04-15T01:59:16.895Z,96416.03
2023-04-15T02:01:43.824Z,96423.81
2023-04-15T02:04:16.565Z,96423.81
2023-04-15T02:06:43.885Z,96424.34
2023-04-15T02:09:10.743Z,96419.25
2023-04-15T02:11:37.615Z,96424.63
2023-04-15T02:14:07.299Z,96429.72
2023-04-15T02:16:34.332Z,96417.13
2023-04-15T02:19:02.209Z,96406.16
2023-04-15T02:21:29.140Z,96413.66
2023-04-15T02:23:56.386Z,96402.66
2023-04-15T02:26:23.325Z,96404.00
2023-04-15T02:28:51.514Z,96403.72
2023-04-15T02:31:18.593Z,96389.53
2023-04-15T02:33:45.621Z,96398.63
2023-04-15T02:36:12.532Z,96396.50
2023-04-15T02:38:41.334Z,96398.63
2023-04-15T02:41:08.661Z,96401.06
2023-04-15T02:43:35.573Z,96398.09
2023-04-15T02:46:02.339Z,96402.13
2023-04-15T02:48:29.271Z,96394.91
2023-04-15T02:51:11.758Z,96395.94
2023-04-15T02:53:38.429Z,96397.31
2023-04-15T02:56:06.173Z,96401.03
2023-04-15T02:58:32.846Z,96390.59
2023-04-15T03:00:59.771Z,96394.06
2023-04-15T03:03:28.213Z,96399.16
2023-04-15T03:05:55.109Z,96405.03
2023-04-15T03:08:21.801Z,96408.28
2023-04-15T03:10:49.440Z,96407.19
2023-04-15T03:13:16.153Z,96410.13
2023-04-15T03:15:42.838Z,96409.84
2023-04-15T03:18:09.489Z,96422.19
2023-04-15T03:20:36.816Z,96414.66
2023-04-15T03:23:03.526Z,96413.06
2023-04-15T03:25:30.296Z,96420.03
2023-04-15T03:27:56.991Z,96433.13
2023-04-15T03:30:23.945Z,96418.63
2023-04-15T03:32:50.716Z,96426.66
2023-04-15T03:35:17.725Z,96433.63
2023-04-15T03:37:44.540Z,96440.34
2023-04-15T03:40:11.597Z,96447.00
2023-04-15T03:42:38.251Z,96446.19
2023-04-15T03:45:05.514Z,96424.47
2023-04-15T03:47:32.207Z,96443.75
2023-04-15T03:49:59.020Z,96437.31
2023-04-15T03:52:26.160Z,96450.44
2023-04-15T03:54:53.097Z,96441.88
2023-04-15T03:57:19.694Z,96445.09
2023-04-15T03:59:46.291Z,96449.63
2023-04-15T04:02:12.961Z,96460.34
2023-04-15T04:04:39.830Z,96460.63
2023-04-15T04:07:06.770Z,96457.94
2023-04-15T04:09:33.467Z,96472.44
2023-04-15T04:12:00.247Z,96452.03
2023-04-15T04:14:29.842Z,96456.88
2023-04-15T04:16:57.514Z,96451.00
2023-04-15T04:19:24.569Z,96446.16
2023-04-15T04:21:51.786Z,96452.59
2023-04-15T04:24:18.541Z,96441.38
2023-04-15T04:26:45.243Z,96421.78
2023-04-15T04:29:12.559Z,96454.53
2023-04-15T04:31:39.207Z,96441.38
2023-04-15T04:34:06.201Z,96455.56
2023-04-15T04:36:32.900Z,96454.25
2023-04-15T04:38:59.898Z,96455.03
2023-04-15T04:41:26.889Z,96451.06
2023-04-15T04:43:53.577Z,96456.69
2023-04-15T04:46:20.671Z,96473.03
2023-04-15T04:48:47.471Z,96466.09
2023-04-15T04:51:14.106Z,96465.81
2023-04-15T04:53:40.762Z,96466.13
2023-04-15T04:56:07.652Z,96464.53
2023-04-15T04:58:34.259Z,96468.56
2023-04-15T05:01:01.034Z,96466.69
2023-04-15T05:03:27.753Z,96460.00
2023-04-15T05:05:54.805Z,96467.22
2023-04-15T05:08:21.550Z,96458.13
2023-04-15T05:10:48.510Z,96469.94
2023-04-15T05:13:15.254Z,96469.94
2023-04-15T05:15:43.377Z,96462.97
2023-04-15T05:18:10.220Z,96464.59
2023-04-15T05:20:36.978Z,96458.69
2023-04-15T05:23:03.720Z,96462.72
2023-04-15T05:25:30.538Z,96468.63
2023-04-15T05:27:57.209Z,96472.13
2023-04-15T05:30:23.845Z,96475.84
2023-04-15T05:32:50.590Z,96467.84
2023-04-15T05:35:17.585Z,96467.28
2023-04-15T05:37:44.237Z,96465.66
2023-04-15T05:40:11.438Z,96463.00
2023-04-15T05:42:38.148Z,96449.56
2023-04-15T05:45:09.206Z,96468.88
2023-04-15T05:47:37.700Z,96480.13
2023-04-15T05:50:04.897Z,96474.75
2023-04-15T05:52:32.074Z,96476.38
2023-04-15T05:54:58.675Z,96483.31
2023-04-15T05:57:25.357Z,96470.97
2023-04-15T05:59:52.851Z,96488.63
2023-04-15T06:02:19.805Z,96487.53
2023-04-15T06:04:46.562Z,96487.19
2023-04-15T06:07:13.481Z,96483.16
2023-04-15T06:09:40.762Z,96479.09
2023-04-15T06:12:12.147Z,96487.34
2023-04-15T06:14:39.456Z,96491.56
2023-04-15T06:17:07.430Z,96484.78
2023-04-15T06:19:34.699Z,96486.88
2023-04-15T06:22:01.884Z,96496.19
2023-04-15T06:24:29.191Z,96491.53
2023-04-15T06:26:56.328Z,96500.84
2023-04-15T06:29:23.046Z,96488.41
2023-04-15T06:31:50.408Z,96502.28
2023-04-15T06:34:17.265Z,96498.41
2023-04-15T06:36:44.094Z,96491.34
2023-04-15T06:39:10.678Z,96497.91
2023-04-15T06:41:37.407Z,96504.41
2023-04-15T06:44:04.178Z,96506.41
2023-04-15T06:46:32.604Z,96500.56
2023-04-15T06:48:59.346Z,96502.41
2023-04-15T06:51:26.817Z,96498.84
2023-04-15T06:53:54.081Z,96510.56
2023-04-15T06:56:20.808Z,96508.50
2023-04-15T06:58:47.456Z,96501.59
2023-04-15T07:01:14.416Z,96518.78
2023-04-15T07:03:42.020Z,96514.38
2023-04-15T07:06:09.557Z,96510.66
2023-04-15T07:08:36.318Z,96519.13
2023-04-15T07:11:03.045Z,96516.34
2023-04-15T07:13:31.828Z,96510.59
2023-04-15T07:15:58.829Z,96515.63
2023-04-15T07:18:25.635Z,96520.22
2023-04-15T07:20:52.737Z,96519.09
2023-04-15T07:23:19.593Z,96516.41
2023-04-15T07:25:46.211Z,96521.09
2023-04-15T07:28:13.013Z,96525.81
2023-04-15T07:30:39.899Z,96514.97
2023-04-15T07:33:07.069Z,96516.56
2023-04-15T07:35:37.161Z,96524.72
2023-04-15T07:38:04.046Z,96528.81
2023-04-15T07:40:30.711Z,96535.97
2023-04-15T07:42:58.524Z,96529.69
2023-04-15T07:45:25.299Z,96525.66
2023-04-15T07:47:52.063Z,96524.13
2023-04-15T07:50:19.837Z,96529.69
2023-04-15T07:52:46.581Z,96531.47
2023-04-15T07:55:13.309Z,96526.38
2023-04-15T07:57:40.110Z,96537.28
2023-04-15T08:00:10.456Z,96523.31
2023-04-15T08:02:39.674Z,96518.97
2023-04-15T08:05:11.018Z,96523.59
2023-04-15T08:07:39.735Z,96525.34
2023-04-15T08:10:07.477Z,96522.78
2023-04-15T08:12:34.496Z,96528.91
2023-04-15T08:15:02.612Z,96521.31
2023-04-15T08:17:29.263Z,96518.00
2023-04-15T08:19:56.107Z,96520.56
2023-04-15T08:22:23.229Z,96525.84
2023-04-15T08:24:49.899Z,96528.47
2023-04-15T08:27:17.046Z,96533.25
2023-04-15T08:29:44.187Z,96538.34
2023-04-15T08:32:10.835Z,96529.72
2023-04-15T08:34:38.442Z,96539.16
2023-04-15T08:37:05.056Z,96539.50
2023-04-15T08:39:31.725Z,96543.81
2023-04-15T08:42:02.958Z,96547.81
2023-04-15T08:44:32.353Z,96544.16
2023-04-15T08:47:02.893Z,96538.81
2023-04-15T08:49:30.640Z,96545.53
2023-04-15T08:51:59.691Z,96542.44
2023-04-15T08:54:28.247Z,96539.59
2023-04-15T08:56:55.334Z,96539.84
2023-04-15T08:59:22.415Z,96538.69
2023-04-15T09:01:51.541Z,96536.63
2023-04-15T09:04:18.675Z,96528.94
2023-04-15T09:06:45.824Z,96546.25
2023-04-15T09:09:14.549Z,96526.28
2023-04-15T09:11:42.482Z,96519.75
2023-04-15T09:14:09.393Z,96527.75
2023-04-15T09:16:58.950Z,96534.19
2023-04-15T09:19:28.024Z,96532.63
2023-04-15T09:21:59.435Z,96542.66
2023-04-15T09:24:33.964Z,96530.34
2023-04-15T09:27:00.699Z,96527.81
2023-04-15T09:29:28.355Z,96526.78
2023-04-15T09:31:55.122Z,96525.63
2023-04-15T09:34:22.831Z,96530.56
2023-04-15T09:36:57.034Z,96521.94
2023-04-15T09:39:23.893Z,96526.06
2023-04-15T09:42:09.025Z,96526.16
2023-04-15T09:44:35.926Z,96525.94
2023-04-15T09:47:02.576Z,96528.34
2023-04-15T09:49:29.457Z,96530.63
2023-04-15T09:52:06.152Z,96526.56
2023-04-15T09:54:37.995Z,96531.91
2023-04-15T09:57:10.375Z,96528.13
2023-04-15T09:59:37.439Z,96529.06
2023-04-15T10:02:07.825Z,96523.03
2023-04-15T10:04:40.146Z,96537.81
2023-04-15T10:07:09.539Z,96533.13
2023-04-15T10:09:36.966Z,96528.13
2023-04-15T10:12:05.641Z,96526.19
2023-04-15T10:14:35.268Z,96517.34
2023-04-15T10:17:04.290Z,96514.66
2023-04-15T10:21:56.130Z,96508.19
2023-04-15T10:24:24.699Z,96498.69
2023-04-15T10:26:55.589Z,96497.28
2023-04-15T10:29:27.058Z,96495.19
2023-04-15T10:31:56.482Z,96492.44
2023-04-15T10:34:27.925Z,96480.81
2023-04-15T10:37:05.038Z,96482.53
2023-04-15T10:39:35.082Z,96488.44
2023-04-15T10:42:09.862Z,96481.50
2023-04-15T10:44:42.495Z,96483.56
2023-04-15T10:47:14.899Z,96481.91
2023-04-15T10:49:48.010Z,96478.31
2023-04-15T10:52:16.976Z,96470.38
2023-04-15T10:54:44.504Z,96454.31
2023-04-15T10:57:17.558Z,96459.63
2023-04-15T10:59:59.927Z,96466.97
2023-04-15T11:02:40.523Z,96458.75
2023-04-15T11:05:09.232Z,96457.47
2023-04-15T11:07:52.293Z,96463.53
2023-04-15T11:10:21.601Z,96474.88
2023-04-15T11:12:52.147Z,96469.56
2023-04-15T11:15:31.284Z,96472.69
2023-04-15T11:18:11.314Z,96464.75
2023-04-15T11:20:40.393Z,96470.84
2023-04-15T11:23:14.130Z,96474.03
2023-04-15T11:25:41.866Z,96481.00
2023-04-15T11:28:08.891Z,96481.81
2023-04-15T11:30:37.675Z,96481.16
2023-04-15T11:33:09.439Z,96478.00
2023-04-15T11:35:36.799Z,96482.22
2023-04-15T11:38:10.300Z,96483.31
2023-04-15T11:40:38.168Z,96474.00
2023-04-15T11:43:12.240Z,96482.09
2023-04-15T11:45:58.050Z,96479.59
2023-04-15T11:48:33.295Z,96479.84
2023-04-15T11:51:05.526Z,96484.72
2023-04-15T11:53:51.177Z,96487.28
2023-04-15T11:56:23.424Z,96478.81
2023-04-15T11:59:00.073Z,96477.31
2023-04-15T12:01:40.054Z,96477.47
2023-04-15T12:04:15.845Z,96472.28
2023-04-15T12:06:43.109Z,96473.31
2023-04-15T12:09:12.352Z,96473.19
2023-04-15T12:11:53.212Z,96472.31
2023-04-15T12:14:31.182Z,96464.00
2023-04-15T12:17:02.116Z,96465.06
2023-04-15T12:19:35.691Z,96468.38
2023-04-15T12:22:04.688Z,96468.09
2023-04-15T12:24:33.203Z,96470.16
2023-04-15T12:27:05.690Z,96468.00
2023-04-15T12:29:34.339Z,96463.75
2023-04-15T12:32:11.179Z,96472.69
2023-04-15T12:34:40.924Z,96467.63
2023-04-15T12:37:10.279Z,96467.28
2023-04-15T12:39:42.275Z,96466.75
2023-04-15T12:42:10.285Z,96462.63
2023-04-15T12:44:37.977Z,96464.97
2023-04-15T12:47:05.016Z,96468.47
2023-04-15T12:49:32.875Z,96469.69
2023-04-15T12:52:01.934Z,96473.41
2023-04-15T12:54:30.874Z,96471.59
2023-04-15T12:56:58.518Z,96464.81
2023-04-15T12:59:27.859Z,96470.09
2023-04-15T13:01:54.932Z,96470.75
2023-04-15T13:04:22.401Z,96468.38
2023-04-15T13:06:49.563Z,96469.16
2023-04-15T13:09:16.471Z,96477.66
2023-04-15T13:11:43.439Z,96471.53
2023-04-15T13:14:14.298Z,96472.63
2023-04-15T13:16:41.510Z,96466.59
2023-04-15T13:19:08.668Z,96467.69
2023-04-15T13:21:36.409Z,96480.22
2023-04-15T13:24:04.389Z,96467.59
2023-04-15T13:26:31.856Z,96467.59
2023-04-15T13:28:58.848Z,96461.16
2023-04-15T13:31:25.618Z,96467.28
2023-04-15T13:33:52.508Z,96467.03
2023-04-15T13:36:19.557Z,96464.50
2023-04-15T13:38:47.119Z,96475.63
2023-04-15T13:41:14.755Z,96477.50
2023-04-15T13:43:41.617Z,96467.75
2023-04-15T13:46:08.606Z,96471.53
2023-04-15T13:48:36.021Z,96486.94
2023-04-15T13:51:02.644Z,96489.31
2023-04-15T13:53:37.980Z,96497.91
2023-04-15T13:56:07.914Z,96507.97
2023-04-15T13:58:34.621Z,96494.06
2023-04-15T14:01:03.210Z,96514.22
2023-04-15T14:03:32.068Z,96512.31
2023-04-15T14:05:59.494Z,96524.00
2023-04-15T14:08:26.169Z,96509.72
2023-04-15T14:10:52.956Z,96525.59
2023-04-15T14:13:19.815Z,96518.22
2023-04-15T14:15:46.795Z,96528.47
2023-04-15T14:18:13.500Z,96524.94
2023-04-15T14:20:40.344Z,96528.78
2023-04-15T14:23:07.020Z,96536.19
2023-04-15T14:25:34.292Z,96528.34
2023-04-15T14:28:02.042Z,96527.09
2023-04-15T14:30:28.770Z,96526.94
2023-04-15T14:32:55.616Z,96528.91
2023-04-15T14:35:22.789Z,96526.25
2023-04-15T14:37:49.403Z,96518.94
2023-04-15T14:40:16.331Z,96526.56
2023-04-15T14:42:43.122Z,96530.78
2023-04-15T14:45:10.637Z,96526.91
2023-04-15T14:47:37.610Z,96526.00
2023-04-15T14:50:04.687Z,96524.53
2023-04-15T14:52:38.925Z,96522.25
2023-04-15T14:55:07.752Z,96520.50
2023-04-15T14:57:34.358Z,96526.88
2023-04-15T15:00:01.019Z,96519.00
2023-04-15T15:02:38.284Z,96519.38
2023-04-15T15:05:06.150Z,96524.72
2023-04-15T15:07:33.193Z,96529.41
2023-04-15T15:09:59.819Z,96528.94
2023-04-15T15:12:26.462Z,96533.72
2023-04-15T15:14:56.017Z,96535.31
2023-04-15T15:17:22.766Z,96540.00
2023-04-15T15:19:49.509Z,96538.06
2023-04-15T15:22:16.170Z,96531.34
2023-04-15T15:24:43.159Z,96533.53
2023-04-15T15:27:10.201Z,96537.50
2023-04-15T15:29:38.070Z,96542.88
2023-04-15T15:32:04.914Z,96540.81
2023-04-15T15:34:31.596Z,96552.56
2023-04-15T15:36:58.436Z,96551.53
2023-04-15T15:39:25.083Z,96559.75
2023-04-15T15:41:51.735Z,96561.56
2023-04-15T15:44:18.726Z,96565.69
2023-04-15T15:46:45.729Z,96565.56
2023-04-15T15:49:12.855Z,96576.84
2023-04-15T15:51:39.704Z,96578.44
2023-04-15T15:54:06.523Z,96583.56
2023-04-15T15:56:34.478Z,96589.59
2023-04-15T15:59:02.042Z,96590.16
2023-04-15T16:01:28.862Z,96591.41
2023-04-15T16:03:55.787Z,96598.88
2023-04-15T16:06:22.826Z,96607.38
2023-04-15T16:08:49.494Z,96617.22
2023-04-15T16:11:16.170Z,96610.31
2023-04-15T16:13:43.111Z,96607.94
2023-04-15T16:16:09.790Z,96618.97
2023-04-15T16:18:36.729Z,96623.22
2023-04-15T16:21:03.610Z,96623.31
2023-04-15T16:23:31.806Z,96623.03
2023-04-15T16:25:58.532Z,96622.75
2023-04-15T16:28:27.101Z,96623.56
2023-04-15T16:30:55.480Z,96632.84
2023-04-15T16:33:22.284Z,96632.09
2023-04-15T16:35:49.069Z,96634.03
2023-04-15T16:38:15.921Z,96638.53
2023-04-15T16:40:42.623Z,96640.31
2023-04-15T16:43:11.395Z,96635.97
2023-04-15T16:45:38.369Z,96637.59
2023-04-15T16:48:05.291Z,96642.56
2023-04-15T16:50:32.053Z,96647.88
2023-04-15T16:52:58.725Z,96645.63
2023-04-15T16:55:25.443Z,96652.56
2023-04-15T16:58:02.562Z,96655.31
2023-04-15T17:00:31.153Z,96659.03
2023-04-15T17:02:58.212Z,96663.69
2023-04-15T17:05:25.008Z,96658.44
2023-04-15T17:07:51.768Z,96660.03
2023-04-15T17:10:18.460Z,96670.44
2023-04-15T17:12:45.331Z,96672.06
2023-04-15T17:15:11.980Z,96672.50
2023-04-15T17:17:39.031Z,96678.91
2023-04-15T17:20:06.262Z,96681.94
2023-04-15T17:22:33.634Z,96690.72
2023-04-15T17:25:00.448Z,96691.44
2023-04-15T17:27:28.965Z,96696.19
2023-04-15T17:29:56.226Z,96703.66
2023-04-15T17:32:23.827Z,96714.28
2023-04-15T17:34:51.525Z,96712.13
2023-04-15T17:37:18.775Z,96721.03
2023-04-15T17:39:45.910Z,96713.28
2023-04-15T17:42:13.393Z,96713.81
2023-04-15T17:44:40.302Z,96711.28
2023-04-15T17:47:12.049Z,96732.81
2023-04-15T17:49:38.761Z,96730.16
2023-04-15T17:52:05.480Z,96735.13
2023-04-15T17:54:32.966Z,96747.81
2023-04-15T17:57:00.283Z,96740.75
2023-04-15T17:59:28.097Z,96749.63
2023-04-15T18:01:55.144Z,96736.97
2023-04-15T18:04:25.850Z,96758.34
2023-04-15T18:06:53.327Z,96758.06
2023-04-15T18:09:20.330Z,96772.19
2023-04-15T18:11:48.680Z,96762.66
2023-04-15T18:14:26.626Z,96770.38
2023-04-15T18:16:59.827Z,96787.19
2023-04-15T18:19:28.066Z,96789.00
2023-04-15T18:21:54.866Z,96789.44
2023-04-15T18:24:22.867Z,96802.88
2023-04-15T18:26:49.675Z,96799.84
2023-04-15T18:29:16.527Z,96810.22
2023-04-15T18:31:44.246Z,96807.00
2023-04-15T18:34:10.980Z,96821.66
2023-04-15T18:36:37.706Z,96827.41
2023-04-15T18:39:05.249Z,96816.28
2023-04-15T18:41:32.753Z,96825.72
2023-04-15T18:43:59.442Z,96836.00
2023-04-15T18:46:26.222Z,96831.22
2023-04-15T18:48:53.550Z,96833.47
2023-04-15T18:51:20.515Z,96832.31
2023-04-15T18:53:47.280Z,96845.06
2023-04-15T18:56:13.903Z,96844.03
2023-04-15T18:59:08.874Z,96833.34
2023-04-15T19:01:27.813Z,96840.16
2023-04-15T19:03:54.477Z,96836.44
2023-04-15T19:06:22.471Z,96837.81
2023-04-15T19:08:49.148Z,96835.47
2023-04-15T19:11:15.875Z,96833.38
2023-04-15T19:13:43.220Z,96844.94
2023-04-15T19:16:10.168Z,96843.63
2023-04-15T19:18:36.982Z,96836.09
2023-04-15T19:21:04.117Z,96840.44
2023-04-15T19:23:31.941Z,96840.28
2023-04-15T19:25:58.940Z,96840.09
2023-04-15T19:28:28.216Z,96843.38
2023-04-15T19:30:55.285Z,96839.94
2023-04-15T19:33:22.081Z,96847.28
2023-04-15T19:35:50.168Z,96854.06
2023-04-15T19:38:17.182Z,96849.53
2023-04-15T19:40:44.151Z,96846.34
2023-04-15T19:43:10.799Z,96852.31
2023-04-15T19:45:37.610Z,96865.81
2023-04-15T19:48:06.138Z,96862.06
2023-04-15T19:50:33.482Z,96860.47
2023-04-15T19:53:00.237Z,96860.81
2023-04-15T19:55:26.930Z,96851.94
2023-04-15T19:57:53.754Z,96858.97
2023-04-15T20:00:20.938Z,96861.72
2023-04-15T20:02:47.731Z,96859.59
2023-04-15T20:05:14.658Z,96870.41
2023-04-15T20:07:42.829Z,96867.47
2023-04-15T20:10:13.013Z,96871.81
2023-04-15T20:12:51.589Z,96872.91
2023-04-15T20:15:20.144Z,96876.44
2023-04-15T20:17:46.963Z,96881.03
2023-04-15T20:20:14.009Z,96879.72
2023-04-15T20:22:41.163Z,96891.59
2023-04-15T20:25:08.137Z,96901.31
2023-04-15T20:27:34.841Z,96890.81
2023-04-15T20:30:02.034Z,96895.97
2023-04-15T20:32:28.804Z,96895.72
2023-04-15T20:34:55.509Z,96893.84
2023-04-15T20:37:22.460Z,96898.16
2023-04-15T20:39:49.266Z,96883.66
2023-04-15T20:42:15.997Z,96897.91
2023-04-15T20:44:42.714Z,96896.03
2023-04-15T20:47:09.473Z,96897.13
2023-04-15T20:49:37.720Z,96899.03
2023-04-15T20:52:05.716Z,96896.31
2023-04-15T20:54:32.491Z,96899.03
2023-04-15T20:56:59.495Z,96905.22
2023-04-15T20:59:26.217Z,96902.50
2023-04-15T21:01:53.202Z,96910.06
2023-04-15T21:04:21.048Z,96907.63
2023-04-15T21:06:47.946Z,96900.91
2023-04-15T21:09:14.662Z,96906.28
2023-04-15T21:11:57.436Z,96916.50
2023-04-15T21:14:28.215Z,96914.88
2023-04-15T21:16:55.032Z,96913.28
2023-04-15T21:19:21.649Z,96915.16
2023-04-15T21:21:48.270Z,96924.84
2023-04-15T21:24:14.931Z,96920.78
2023-04-15T21:26:41.648Z,96919.19
2023-04-15T21:29:11.426Z,96924.03
2023-04-15T21:31:38.712Z,96936.38
2023-04-15T21:34:05.551Z,96929.38
2023-04-15T21:36:32.287Z,96923.69
2023-04-15T21:38:58.901Z,96930.97
2023-04-15T21:41:26.158Z,96932.56
2023-04-15T21:43:53.593Z,96936.56
2023-04-15T21:46:22.539Z,96938.19
2023-04-15T21:48:52.821Z,96948.69
2023-04-15T21:51:19.582Z,96929.84
2023-04-15T21:53:46.266Z,96931.69
2023-04-15T21:56:13.124Z,96947.03
2023-04-15T21:58:40.026Z,96949.44
2023-04-15T22:01:06.805Z,96949.16
2023-04-15T22:03:35.063Z,96960.16
2023-04-15T22:06:03.480Z,96966.06
2023-04-15T22:08:33.799Z,96964.72
2023-04-15T22:11:08.435Z,96966.03
2023-04-15T22:13:35.388Z,96973.53
2023-04-15T22:16:02.550Z,96973.25
2023-04-15T22:18:29.141Z,96972.16
2023-04-15T22:20:56.366Z,96975.09
2023-04-15T22:23:22.996Z,96972.66
2023-04-15T22:25:49.593Z,96976.38
2023-04-15T22:28:16.573Z,96975.56
2023-04-15T22:30:43.282Z,96978.72
2023-04-15T22:33:11.078Z,96972.25
2023-04-15T22:35:37.808Z,96978.94
2023-04-15T22:38:05.073Z,96975.16
2023-04-15T22:40:31.922Z,96970.56
2023-04-15T22:42:58.599Z,96968.09
2023-04-15T22:45:25.484Z,96967.78
2023-04-15T22:47:52.268Z,96973.38
2023-04-15T22:50:19.037Z,96976.59
2023-04-15T22:52:48.180Z,96967.19
2023-04-15T22:55:14.987Z,96984.91
2023-04-15T22:57:41.688Z,96983.00
2023-04-15T23:00:09.302Z,96980.81
2023-04-15T23:02:36.222Z,96990.47
2023-04-15T23:05:11.452Z,96979.72
2023-04-15T23:07:40.092Z,96982.09
2023-04-15T23:10:08.079Z,96991.16
2023-04-15T23:12:34.925Z,96988.19
2023-04-15T23:15:01.738Z,96987.56
2023-04-15T23:17:28.455Z,96987.03
2023-04-15T23:19:55.095Z,96985.16
2023-04-15T23:22:21.945Z,96988.59
2023-04-15T23:24:48.641Z,96992.84
2023-04-15T23:27:15.390Z,96983.66
2023-04-15T23:29:42.131Z,96989.81
2023-04-15T23:32:08.713Z,96995.44
2023-04-15T23:34:35.434Z,96987.03
2023-04-15T23:37:02.501Z,96990.00
2023-04-15T23:39:30.537Z,96996.75
2023-04-15T23:41:57.258Z,96999.63
2023-04-15T23:44:23.913Z,96995.84
2023-04-15T23:46:51.383Z,96994.97
2023-04-15T23:49:20.089Z,96997.63
2023-04-15T23:51:47.268Z,97000.00
2023-04-15T23:54:14.082Z,96998.91
2023-04-15T23:56:40.760Z,97001.84
2023-04-15T23:59:07.817Z,96994.00
